Time;durP1;ratioP1;P1;durP2;ratioP2;P2;SDS_P1;SDS_P2;PMS_P1;PMS_P2;Temp;Humidity;BMP_temperature;BMP_pressure;BME280_temperature;BME280_humidity;BME280_pressure;Samples;Min_cycle;Max_cycle;Signal;HPM_P1;HPM_P2
2021/12/20 00:00:30;;;;;;;8.45;3.50;;;4.20;99.90;;;;;;5113848;28;20051;-74
2021/12/20 00:03:00;;;;;;;9.30;3.80;;;4.30;99.90;;;;;;5113837;28;20043;-74
2021/12/20 00:05:27;;;;;;;10.13;4.05;;;4.30;99.90;;;;;;5113831;28;20441;-74
2021/12/20 00:07:56;;;;;;;11.05;3.85;;;4.20;99.90;;;;;;5114189;28;20453;-75
2021/12/20 00:10:24;;;;;;;9.95;3.85;;;4.30;99.90;;;;;;5113039;28;20043;-77
2021/12/20 00:12:51;;;;;;;8.27;3.40;;;4.30;99.90;;;;;;5113431;28;20048;-75
2021/12/20 00:15:19;;;;;;;8.20;3.40;;;4.30;99.90;;;;;;5112406;28;20206;-75
2021/12/20 00:17:46;;;;;;;7.55;3.35;;;4.40;99.90;;;;;;5114649;28;20100;-75
2021/12/20 00:20:14;;;;;;;7.80;3.47;;;4.40;99.90;;;;;;5114690;28;20047;-75
2021/12/20 00:22:41;;;;;;;9.07;3.30;;;4.40;99.90;;;;;;5116187;28;20056;-75
2021/12/20 00:25:10;;;;;;;7.85;2.45;;;4.40;99.90;;;;;;5115793;28;20058;-75
2021/12/20 00:27:38;;;;;;;8.20;2.78;;;4.40;99.90;;;;;;5116130;28;20560;-74
2021/12/20 00:30:06;;;;;;;7.50;2.90;;;4.40;99.90;;;;;;5115508;28;20044;-75
2021/12/20 00:32:33;;;;;;;7.70;2.50;;;4.40;99.90;;;;;;5115874;28;20499;-75
2021/12/20 00:35:00;;;;;;;7.85;3.00;;;4.40;99.90;;;;;;5114832;28;20040;-75
2021/12/20 00:40:20;;;;;;;8.95;3.25;;;4.50;99.90;;;;;;5114747;28;20489;-75
2021/12/20 00:42:49;;;;;;;10.80;3.28;;;4.40;99.90;;;;;;5113741;28;20087;-76
2021/12/20 00:45:16;;;;;;;8.82;3.20;;;4.40;99.90;;;;;;5112511;28;20047;-76
2021/12/20 00:47:43;;;;;;;6.70;2.78;;;4.40;99.90;;;;;;5113362;28;20051;-75
2021/12/20 00:50:12;;;;;;;7.55;3.22;;;4.40;99.90;;;;;;5113641;28;20044;-75
2021/12/20 00:52:40;;;;;;;7.75;3.10;;;4.40;99.90;;;;;;5113409;28;20093;-75
2021/12/20 00:55:07;;;;;;;7.70;2.85;;;4.40;99.90;;;;;;5112222;28;20109;-75
2021/12/20 00:57:36;;;;;;;7.13;2.53;;;4.40;99.90;;;;;;5113370;28;20356;-75
2021/12/20 01:00:06;;;;;;;8.68;3.10;;;4.40;99.90;;;;;;5112527;28;20093;-75
2021/12/20 01:02:33;;;;;;;6.32;3.00;;;4.40;99.90;;;;;;5112970;28;20074;-75
2021/12/20 01:05:00;;;;;;;9.38;4.15;;;4.40;99.90;;;;;;5112121;28;20104;-75
2021/12/20 01:07:28;;;;;;;8.80;3.30;;;4.40;99.90;;;;;;5114204;28;20500;-75
2021/12/20 01:09:58;;;;;;;7.60;3.40;;;4.40;99.90;;;;;;5114843;28;20477;-75
2021/12/20 01:12:29;;;;;;;7.47;3.20;;;4.40;99.90;;;;;;5113964;28;20073;-72
2021/12/20 01:15:02;;;;;;;8.88;3.40;;;4.40;99.90;;;;;;5112644;28;20088;-74
2021/12/20 01:17:29;;;;;;;9.50;3.60;;;4.40;99.90;;;;;;5113639;28;20057;-74
2021/12/20 01:19:57;;;;;;;7.47;2.92;;;4.40;99.90;;;;;;5112637;28;20043;-73
2021/12/20 01:22:24;;;;;;;10.85;3.67;;;4.30;99.90;;;;;;5112631;28;20044;-75
2021/12/20 01:24:51;;;;;;;9.60;4.00;;;4.30;99.90;;;;;;5111704;28;20055;-73
2021/12/20 01:27:18;;;;;;;12.57;3.80;;;4.30;99.90;;;;;;5112942;28;20052;-73
2021/12/20 01:29:45;;;;;;;9.35;3.85;;;4.30;99.90;;;;;;5112182;28;20051;-74
2021/12/20 01:32:14;;;;;;;8.18;3.13;;;4.30;99.90;;;;;;5114599;28;20054;-72
2021/12/20 01:34:41;;;;;;;8.65;3.03;;;4.40;99.90;;;;;;5115186;28;20060;-72
2021/12/20 01:37:08;;;;;;;7.40;2.97;;;4.40;99.90;;;;;;5115884;28;20541;-71
2021/12/20 01:39:35;;;;;;;10.57;3.47;;;4.50;99.90;;;;;;5116450;28;20052;-71
2021/12/20 01:42:04;;;;;;;7.90;3.22;;;4.40;99.90;;;;;;5115958;28;20047;-74
2021/12/20 01:44:32;;;;;;;10.85;3.47;;;4.50;99.90;;;;;;5117035;28;20514;-72
2021/12/20 01:47:01;;;;;;;7.93;3.20;;;4.50;99.90;;;;;;5115240;28;20109;-75
2021/12/20 01:49:32;;;;;;;8.32;3.15;;;4.40;99.90;;;;;;5116058;28;20073;-72
2021/12/20 01:52:10;;;;;;;9.73;3.90;;;4.40;99.90;;;;;;5115866;28;20044;-73
2021/12/20 01:54:37;;;;;;;8.38;3.05;;;4.40;99.90;;;;;;5115012;28;20051;-71
2021/12/20 01:57:04;;;;;;;8.40;3.33;;;4.30;99.90;;;;;;5114755;28;20052;-72
2021/12/20 01:59:32;;;;;;;8.68;3.30;;;4.30;99.90;;;;;;5115044;28;20052;-73
2021/12/20 02:01:59;;;;;;;8.50;3.72;;;4.40;99.90;;;;;;5114051;28;20063;-71
2021/12/20 02:04:27;;;;;;;9.80;3.08;;;4.30;99.90;;;;;;5116447;28;20048;-71
2021/12/20 02:06:55;;;;;;;7.88;3.25;;;4.30;99.90;;;;;;5117877;28;20051;-72
2021/12/20 02:09:23;;;;;;;14.60;3.80;;;4.40;99.90;;;;;;5118488;28;20070;-75
2021/12/20 02:11:51;;;;;;;7.03;2.95;;;4.40;99.90;;;;;;5118625;28;20048;-71
2021/12/20 02:14:19;;;;;;;8.02;3.50;;;4.30;99.90;;;;;;5118234;28;20054;-71
2021/12/20 02:16:47;;;;;;;6.85;3.10;;;4.30;99.90;;;;;;5117530;28;20495;-72
2021/12/20 02:19:16;;;;;;;8.10;3.25;;;4.30;99.90;;;;;;5119342;28;20054;-72
2021/12/20 02:21:45;;;;;;;8.95;3.45;;;4.30;99.90;;;;;;5118039;28;20044;-72
2021/12/20 02:24:13;;;;;;;10.30;3.25;;;4.30;99.90;;;;;;5119464;28;20074;-73
2021/12/20 02:26:40;;;;;;;9.88;3.22;;;4.30;99.90;;;;;;5118454;28;20052;-73
2021/12/20 02:29:09;;;;;;;8.43;3.53;;;4.30;99.90;;;;;;5119330;28;20052;-74
2021/12/20 02:37:27;;;;;;;8.48;3.30;;;4.20;99.90;;;;;;5116739;28;20049;-71
2021/12/20 02:39:56;;;;;;;8.38;3.70;;;4.20;99.90;;;;;;5118226;28;20051;-71
2021/12/20 02:42:28;;;;;;;8.50;3.20;;;4.10;99.90;;;;;;5118382;28;20543;-73
2021/12/20 02:45:08;;;;;;;8.35;3.10;;;4.10;99.90;;;;;;5117018;28;20067;-74
2021/12/20 02:47:38;;;;;;;9.73;3.67;;;4.20;99.90;;;;;;5116990;28;20100;-74
2021/12/20 02:50:06;;;;;;;8.70;3.22;;;4.10;99.90;;;;;;5116945;28;20523;-74
2021/12/20 02:52:35;;;;;;;8.80;3.50;;;4.10;99.90;;;;;;5116772;28;20092;-74
2021/12/20 02:55:02;;;;;;;7.70;2.97;;;4.20;99.90;;;;;;5116939;28;20055;-72
2021/12/20 02:57:29;;;;;;;10.40;3.20;;;4.10;99.90;;;;;;5117903;28;20044;-73
2021/12/20 02:59:56;;;;;;;12.07;3.72;;;4.10;99.90;;;;;;5116808;28;20549;-73
2021/12/20 03:02:23;;;;;;;10.93;3.77;;;4.10;99.90;;;;;;5116453;28;20044;-73
2021/12/20 03:04:51;;;;;;;8.38;3.15;;;4.00;99.90;;;;;;5115770;28;20130;-73
2021/12/20 03:07:24;;;;;;;10.63;2.77;;;4.10;99.90;;;;;;5117039;28;20168;-74
2021/12/20 03:10:00;;;;;;;9.60;2.80;;;4.10;99.90;;;;;;5117468;28;20130;-73
2021/12/20 03:12:29;;;;;;;6.07;2.25;;;4.10;99.90;;;;;;5116091;28;20048;-73
2021/12/20 03:15:03;;;;;;;9.60;3.17;;;4.10;99.90;;;;;;5114068;28;20104;-75
2021/12/20 03:17:30;;;;;;;10.20;2.83;;;4.00;99.90;;;;;;5116624;28;20055;-73
2021/12/20 03:19:57;;;;;;;9.35;3.70;;;4.00;99.90;;;;;;5116917;28;20075;-75
2021/12/20 03:22:24;;;;;;;7.47;2.83;;;4.00;99.90;;;;;;5115644;28;20097;-73
2021/12/20 03:24:52;;;;;;;13.32;4.22;;;4.00;99.90;;;;;;5114354;28;20494;-73
2021/12/20 03:27:20;;;;;;;13.20;3.27;;;3.80;99.90;;;;;;5115030;28;20051;-75
2021/12/20 03:29:47;;;;;;;15.30;3.53;;;3.70;99.90;;;;;;5115720;28;20051;-73
2021/12/20 03:32:14;;;;;;;7.80;3.10;;;3.60;99.90;;;;;;5114551;28;20552;-77
2021/12/20 03:34:41;;;;;;;10.73;3.30;;;3.40;99.90;;;;;;5115049;28;20051;-75
2021/12/20 03:37:08;;;;;;;11.70;3.20;;;3.30;99.90;;;;;;5114886;28;20103;-74
2021/12/20 03:39:35;;;;;;;13.50;3.33;;;3.20;99.90;;;;;;5114607;28;20055;-73
2021/12/20 03:42:04;;;;;;;9.73;3.50;;;3.10;99.90;;;;;;5114627;28;20047;-72
2021/12/20 03:44:36;;;;;;;9.83;3.20;;;3.00;99.90;;;;;;5114849;28;20081;-73
2021/12/20 03:47:04;;;;;;;11.60;3.13;;;3.00;99.90;;;;;;5114073;28;20083;-73
2021/12/20 03:49:31;;;;;;;7.97;3.50;;;2.80;99.90;;;;;;5114753;28;20108;-72
2021/12/20 03:51:58;;;;;;;13.23;3.80;;;2.80;99.90;;;;;;5118663;28;20051;-71
2021/12/20 03:54:25;;;;;;;9.57;3.87;;;2.80;99.90;;;;;;5114944;28;20051;-74
2021/12/20 03:56:52;;;;;;;13.93;4.17;;;2.70;99.90;;;;;;5114983;28;20043;-71
2021/12/20 03:59:21;;;;;;;9.03;3.27;;;2.80;99.90;;;;;;5115702;28;20055;-73
2021/12/20 04:01:48;;;;;;;11.63;3.37;;;2.70;99.90;;;;;;5115669;28;20040;-73
2021/12/20 04:04:15;;;;;;;9.50;3.90;;;2.80;99.90;;;;;;5116155;28;20060;-73
2021/12/20 04:06:42;;;;;;;8.93;3.53;;;2.70;99.90;;;;;;5115730;28;20557;-73
2021/12/20 04:09:09;;;;;;;10.30;3.40;;;2.60;99.90;;;;;;5119322;28;20105;-74
2021/12/20 04:11:36;;;;;;;8.97;3.17;;;2.60;99.90;;;;;;5117377;28;20048;-73
2021/12/20 04:14:03;;;;;;;13.20;3.80;;;2.60;99.90;;;;;;5116974;28;20102;-74
2021/12/20 04:16:32;;;;;;;13.77;4.20;;;2.60;99.90;;;;;;5116313;28;20117;-73
2021/12/20 04:18:59;;;;;;;11.17;3.53;;;2.50;99.90;;;;;;5117029;28;20096;-73
2021/12/20 04:21:26;;;;;;;16.47;4.27;;;2.50;99.90;;;;;;5116738;28;20405;-74
2021/12/20 04:23:53;;;;;;;9.77;2.83;;;2.40;99.90;;;;;;5119079;28;20051;-72
2021/12/20 04:26:20;;;;;;;17.43;4.73;;;2.30;99.90;;;;;;5115488;28;20101;-75
2021/12/20 04:28:47;;;;;;;10.70;3.40;;;2.30;99.90;;;;;;5116796;28;20112;-73
2021/12/20 04:31:14;;;;;;;10.57;3.60;;;2.20;99.90;;;;;;5116892;28;20054;-76
2021/12/20 04:33:43;;;;;;;19.07;3.73;;;2.10;99.90;;;;;;5116828;28;20077;-74
2021/12/20 04:36:10;;;;;;;11.90;4.30;;;1.90;99.90;;;;;;5114821;28;20039;-73
2021/12/20 04:38:37;;;;;;;14.40;4.13;;;2.00;99.90;;;;;;5116289;28;20047;-74
2021/12/20 04:41:04;;;;;;;9.10;3.70;;;2.10;99.90;;;;;;5117286;28;20074;-73
2021/12/20 04:43:31;;;;;;;9.47;3.63;;;2.10;99.90;;;;;;5116708;28;20312;-73
2021/12/20 04:45:58;;;;;;;15.60;4.03;;;2.00;99.90;;;;;;5115184;28;20515;-74
2021/12/20 04:48:25;;;;;;;15.23;5.27;;;1.90;99.90;;;;;;5115769;28;20051;-73
2021/12/20 04:50:53;;;;;;;16.80;4.17;;;1.80;99.90;;;;;;5116525;28;20047;-74
2021/12/20 04:53:20;;;;;;;16.20;4.13;;;1.80;99.90;;;;;;5116783;28;20069;-74
2021/12/20 04:55:47;;;;;;;14.70;3.67;;;1.70;99.90;;;;;;5116587;28;20048;-73
2021/12/20 04:58:15;;;;;;;14.17;4.20;;;1.70;99.90;;;;;;5117005;28;20040;-74
2021/12/20 05:00:44;;;;;;;14.73;4.33;;;1.70;99.90;;;;;;5116164;28;20089;-73
2021/12/20 05:03:11;;;;;;;16.60;4.87;;;1.60;99.90;;;;;;5116105;28;20070;-75
2021/12/20 05:05:38;;;;;;;10.33;3.70;;;1.60;99.90;;;;;;5114445;28;20059;-74
2021/12/20 05:08:08;;;;;;;16.60;4.03;;;1.30;99.90;;;;;;5116335;28;20051;-74
2021/12/20 05:10:38;;;;;;;14.93;4.03;;;1.50;99.90;;;;;;5116134;28;20063;-73
2021/12/20 05:13:07;;;;;;;15.47;4.87;;;1.40;99.90;;;;;;5116983;28;20047;-73
2021/12/20 05:15:35;;;;;;;12.60;3.93;;;1.30;99.90;;;;;;5114311;28;20131;-73
2021/12/20 05:18:02;;;;;;;11.87;3.70;;;1.20;99.90;;;;;;5115005;28;20058;-73
2021/12/20 05:20:29;;;;;;;12.80;4.27;;;1.20;99.90;;;;;;5115462;28;20059;-73
2021/12/20 05:22:57;;;;;;;15.27;4.33;;;1.00;99.90;;;;;;5114978;28;20047;-74
2021/12/20 05:25:26;;;;;;;20.07;5.70;;;1.00;99.90;;;;;;5115068;28;20063;-74
2021/12/20 05:27:54;;;;;;;16.17;4.03;;;1.20;99.90;;;;;;5114872;28;20047;-75
2021/12/20 05:30:21;;;;;;;14.80;3.87;;;1.10;99.90;;;;;;5116490;28;20058;-75
2021/12/20 05:32:48;;;;;;;14.17;3.73;;;1.00;99.90;;;;;;5115584;28;20047;-74
2021/12/20 05:35:19;;;;;;;13.80;4.40;;;1.00;99.90;;;;;;5114524;28;20044;-73
2021/12/20 05:37:46;;;;;;;16.37;4.00;;;1.00;99.90;;;;;;5115598;28;20063;-74
2021/12/20 05:40:14;;;;;;;14.77;4.07;;;0.80;99.90;;;;;;5119718;28;20055;-73
2021/12/20 05:42:43;;;;;;;15.10;3.93;;;0.70;99.90;;;;;;5119489;28;20054;-73
2021/12/20 05:45:11;;;;;;;15.10;4.20;;;0.80;99.90;;;;;;5120807;28;20110;-74
2021/12/20 05:47:38;;;;;;;15.57;4.30;;;0.90;99.90;;;;;;5119172;28;20069;-75
2021/12/20 05:50:07;;;;;;;15.13;4.67;;;0.70;99.90;;;;;;5120054;28;20063;-73
2021/12/20 05:52:34;;;;;;;14.07;4.10;;;0.80;99.90;;;;;;5119915;28;20108;-77
2021/12/20 05:55:01;;;;;;;14.43;4.47;;;0.80;99.90;;;;;;5119027;28;20044;-74
2021/12/20 05:57:29;;;;;;;19.20;4.60;;;0.60;99.90;;;;;;5119971;28;20302;-73
2021/12/20 05:59:58;;;;;;;17.03;4.10;;;0.60;99.90;;;;;;5119644;28;20130;-73
2021/12/20 06:02:25;;;;;;;11.50;3.67;;;0.60;99.90;;;;;;5110818;28;20047;-75
2021/12/20 06:04:52;;;;;;;17.10;4.63;;;0.60;99.90;;;;;;5120270;28;20047;-73
2021/12/20 06:07:20;;;;;;;18.27;4.80;;;0.60;99.90;;;;;;5119191;28;20048;-74
2021/12/20 06:09:47;;;;;;;13.83;4.50;;;0.50;99.90;;;;;;5119197;28;20056;-73
2021/12/20 06:12:14;;;;;;;18.73;4.63;;;0.40;99.90;;;;;;5119308;28;20039;-73
2021/12/20 06:14:42;;;;;;;17.33;6.00;;;0.40;99.90;;;;;;5118649;28;20105;-73
2021/12/20 06:17:10;;;;;;;26.87;6.03;;;0.40;99.90;;;;;;5118814;28;20044;-73
2021/12/20 06:19:37;;;;;;;16.57;5.60;;;0.40;99.90;;;;;;5121852;28;20069;-75
2021/12/20 06:22:05;;;;;;;19.97;5.37;;;0.50;99.90;;;;;;5119886;28;20047;-74
2021/12/20 06:24:32;;;;;;;21.37;5.27;;;0.60;99.90;;;;;;5119153;28;20047;-73
2021/12/20 06:26:59;;;;;;;20.87;5.77;;;0.50;99.90;;;;;;5118519;28;20418;-74
2021/12/20 06:29:26;;;;;;;18.43;5.30;;;0.30;99.90;;;;;;5118465;28;20048;-73
2021/12/20 06:31:53;;;;;;;17.53;5.60;;;0.30;99.90;;;;;;5118588;28;20055;-74
2021/12/20 06:34:22;;;;;;;18.83;5.13;;;0.20;99.90;;;;;;5118809;28;20051;-73
2021/12/20 06:36:49;;;;;;;14.37;6.63;;;0.20;99.90;;;;;;5117736;28;20052;-73
2021/12/20 06:39:16;;;;;;;19.87;6.17;;;0.20;99.90;;;;;;5120416;28;20052;-74
2021/12/20 06:41:44;;;;;;;25.33;5.60;;;0.20;99.90;;;;;;5119209;28;20058;-73
2021/12/20 06:44:11;;;;;;;18.17;6.43;;;0.20;99.90;;;;;;5119378;28;20051;-72
2021/12/20 06:46:41;;;;;;;17.03;5.80;;;0.10;99.90;;;;;;5117981;28;20063;-73
2021/12/20 06:49:10;;;;;;;19.83;7.10;;;0.00;99.90;;;;;;5118312;28;20528;-73
2021/12/20 06:51:41;;;;;;;23.37;7.23;;;0.00;99.90;;;;;;5118920;28;20055;-73
2021/12/20 06:54:08;;;;;;;18.37;6.37;;;0.10;99.90;;;;;;5118947;28;20083;-75
2021/12/20 06:56:35;;;;;;;22.50;6.60;;;0.10;99.90;;;;;;5118227;28;20051;-74
2021/12/20 06:59:02;;;;;;;24.73;8.53;;;0.20;99.90;;;;;;5119000;28;20461;-73
2021/12/20 07:01:29;;;;;;;31.23;11.20;;;0.10;99.90;;;;;;5118217;28;20073;-74
2021/12/20 07:03:57;;;;;;;27.47;8.37;;;0.20;99.90;;;;;;5118293;28;20051;-73
2021/12/20 07:06:24;;;;;;;27.33;7.93;;;0.10;99.90;;;;;;5118119;28;20051;-74
2021/12/20 07:08:52;;;;;;;23.07;7.20;;;-0.10;99.90;;;;;;5118360;28;20089;-73
2021/12/20 07:11:19;;;;;;;27.37;8.87;;;0.00;99.90;;;;;;5118534;28;20050;-73
2021/12/20 07:13:46;;;;;;;31.50;9.90;;;-0.10;99.90;;;;;;5118016;28;20051;-73
2021/12/20 07:16:14;;;;;;;42.97;10.93;;;-0.10;99.90;;;;;;5117472;28;20081;-73
2021/12/20 07:18:42;;;;;;;36.53;11.40;;;-0.10;99.90;;;;;;5117353;28;20453;-73
2021/12/20 07:21:09;;;;;;;28.53;11.13;;;0.00;99.90;;;;;;5117941;28;20047;-74
2021/12/20 07:23:36;;;;;;;30.40;10.47;;;0.00;99.90;;;;;;5118328;28;20044;-73
2021/12/20 07:26:06;;;;;;;30.03;9.77;;;0.00;99.90;;;;;;5117361;28;20550;-73
2021/12/20 07:28:34;;;;;;;30.40;9.53;;;-0.20;99.90;;;;;;5117899;28;20558;-73
2021/12/20 07:31:01;;;;;;;29.17;10.70;;;-0.20;99.90;;;;;;5117724;28;20117;-73
2021/12/20 07:33:28;;;;;;;37.87;11.17;;;-0.20;99.90;;;;;;5117614;28;20495;-73
2021/12/20 07:35:55;;;;;;;32.33;12.33;;;-0.20;99.90;;;;;;5117345;28;20051;-73
2021/12/20 07:38:22;;;;;;;35.43;13.47;;;-0.20;99.90;;;;;;5118130;28;20093;-73
2021/12/20 07:40:52;;;;;;;33.60;17.40;;;-0.20;99.90;;;;;;5117588;28;20113;-73
2021/12/20 07:43:20;;;;;;;39.17;20.80;;;-0.20;99.90;;;;;;5117395;28;20055;-73
2021/12/20 07:45:48;;;;;;;45.20;20.33;;;0.00;99.90;;;;;;5117596;28;20047;-73
2021/12/20 07:48:16;;;;;;;40.33;18.50;;;0.00;99.90;;;;;;5119553;28;20077;-73
2021/12/20 07:50:43;;;;;;;38.70;17.37;;;0.00;99.90;;;;;;5117915;28;20104;-73
2021/12/20 07:53:11;;;;;;;40.23;18.40;;;0.10;99.90;;;;;;5117727;28;20181;-73
2021/12/20 07:55:38;;;;;;;50.17;18.00;;;0.20;99.90;;;;;;5116394;28;20116;-73
2021/12/20 07:58:05;;;;;;;38.43;18.23;;;0.20;99.90;;;;;;5117248;28;20052;-73
2021/12/20 08:00:34;;;;;;;47.57;19.93;;;0.30;99.90;;;;;;5117544;28;20487;-73
2021/12/20 08:03:02;;;;;;;53.30;20.40;;;0.40;99.90;;;;;;5116659;28;20201;-75
2021/12/20 08:05:29;;;;;;;44.67;18.87;;;0.40;99.90;;;;;;5116280;28;20058;-73
2021/12/20 08:07:56;;;;;;;36.77;16.50;;;0.50;99.90;;;;;;5118060;28;20047;-71
2021/12/20 08:10:27;;;;;;;38.03;17.10;;;0.50;99.90;;;;;;5117675;28;20396;-74
2021/12/20 08:12:55;;;;;;;36.60;17.40;;;0.50;99.90;;;;;;5117373;28;20067;-71
2021/12/20 08:15:23;;;;;;;42.47;17.23;;;0.60;99.90;;;;;;5117368;28;20048;-74
2021/12/20 08:17:52;;;;;;;32.50;15.00;;;0.70;99.90;;;;;;5118173;28;20055;-71
2021/12/20 08:20:19;;;;;;;42.67;14.70;;;0.70;99.90;;;;;;5119362;28;20281;-73
2021/12/20 08:22:46;;;;;;;32.43;12.67;;;0.80;99.90;;;;;;5117762;28;20495;-72
2021/12/20 08:25:13;;;;;;;22.87;9.90;;;0.80;99.90;;;;;;5116613;28;20051;-70
2021/12/20 08:27:41;;;;;;;28.70;10.13;;;0.90;99.90;;;;;;5117154;28;20105;-71
2021/12/20 08:30:08;;;;;;;27.10;10.33;;;1.10;99.90;;;;;;5117365;28;20051;-71
2021/12/20 08:32:36;;;;;;;35.63;10.40;;;1.20;99.90;;;;;;5116865;28;20043;-72
2021/12/20 08:35:06;;;;;;;29.50;10.13;;;1.30;99.90;;;;;;5116624;28;20058;-73
2021/12/20 08:37:34;;;;;;;41.40;11.70;;;1.40;99.90;;;;;;5117398;28;20043;-71
2021/12/20 08:40:03;;;;;;;42.73;12.00;;;1.50;99.90;;;;;;5117068;28;20055;-72
2021/12/20 08:42:30;;;;;;;35.07;10.00;;;1.50;99.90;;;;;;5117252;28;20115;-71
2021/12/20 08:44:57;;;;;;;44.87;10.90;;;1.60;99.90;;;;;;5117044;28;20058;-70
2021/12/20 08:47:24;;;;;;;36.93;10.07;;;1.70;99.90;;;;;;5119031;28;20047;-74
2021/12/20 08:49:51;;;;;;;38.27;10.60;;;1.80;99.90;;;;;;5118971;28;20344;-72
2021/12/20 08:52:19;;;;;;;32.77;9.67;;;2.00;99.90;;;;;;5118507;28;20051;-71
2021/12/20 08:54:46;;;;;;;32.17;8.90;;;2.00;99.90;;;;;;5117717;28;20055;-75
2021/12/20 08:57:13;;;;;;;40.30;9.30;;;2.10;99.90;;;;;;5118280;28;20131;-73
2021/12/20 08:59:40;;;;;;;32.17;7.63;;;2.30;99.90;;;;;;5118762;28;20047;-71
2021/12/20 09:02:09;;;;;;;19.93;6.60;;;2.50;99.90;;;;;;5119045;28;20051;-73
2021/12/20 09:04:36;;;;;;;29.23;7.00;;;2.70;99.90;;;;;;5118965;28;20051;-73
2021/12/20 09:07:04;;;;;;;24.77;6.23;;;3.60;99.90;;;;;;5117620;28;20048;-71
2021/12/20 09:09:37;;;;;;;22.53;5.67;;;4.30;99.90;;;;;;5116498;28;20039;-72
2021/12/20 09:12:06;;;;;;;19.43;6.60;;;4.80;99.90;;;;;;5115220;28;20059;-72
2021/12/20 09:14:34;;;;;;;20.27;6.50;;;6.30;99.90;;;;;;5112936;28;20044;-71
2021/12/20 09:17:01;;;;;;;27.10;5.57;;;8.20;99.90;;;;;;5111458;28;20127;-71
2021/12/20 09:19:28;;;;;;;21.75;6.82;;;9.10;99.90;;;;;;5112624;28;20043;-71
2021/12/20 09:21:55;;;;;;;22.40;6.82;;;10.30;99.90;;;;;;5111463;28;20048;-71
2021/12/20 09:24:22;;;;;;;20.60;6.35;;;10.00;99.90;;;;;;5110219;28;20128;-71
2021/12/20 09:26:50;;;;;;;26.52;7.30;;;10.80;99.90;;;;;;5108727;28;20096;-71
2021/12/20 09:29:17;;;;;;;22.55;6.57;;;9.20;99.90;;;;;;5108860;28;20093;-72
2021/12/20 09:31:45;;;;;;;25.17;7.68;;;12.10;99.90;;;;;;5108542;28;20116;-71
2021/12/20 09:34:12;;;;;;;18.02;4.97;;;13.90;99.90;;;;;;5108934;28;20398;-72
2021/12/20 09:36:39;;;;;;;23.95;5.18;;;14.30;99.90;;;;;;5107875;28;20552;-70
2021/12/20 09:39:11;;;;;;;16.65;4.65;;;14.50;99.90;;;;;;5108877;28;20504;-70
2021/12/20 09:44:39;;;;;;;14.27;5.43;;;16.20;99.90;;;;;;5045379;28;20045;-70
2021/12/20 09:47:06;;;;;;;18.13;5.20;;;16.00;99.90;;;;;;5045260;28;20056;-71
2021/12/20 09:49:33;;;;;;;18.95;4.22;;;16.60;99.90;;;;;;5073752;28;20073;-70
2021/12/20 09:52:00;;;;;;;11.68;3.65;;;16.40;99.90;;;;;;5108688;28;20043;-70
2021/12/20 09:54:29;;;;;;;14.10;4.70;;;17.20;99.90;;;;;;5108519;28;20306;-71
2021/12/20 09:56:59;;;;;;;14.48;4.38;;;16.60;99.90;;;;;;5107728;28;20075;-70
2021/12/20 09:59:28;;;;;;;15.77;5.05;;;17.90;99.90;;;;;;5108778;28;20142;-71
2021/12/20 10:01:58;;;;;;;16.65;5.28;;;18.80;99.90;;;;;;5108415;28;20048;-71
2021/12/20 10:04:26;;;;;;;19.58;5.47;;;20.50;98.90;;;;;;5108121;28;20058;-70
2021/12/20 10:06:54;;;;;;;12.98;4.50;;;20.30;98.40;;;;;;5107294;28;20047;-70
2021/12/20 10:09:27;;;;;;;21.63;4.90;;;21.30;96.80;;;;;;5108209;28;20054;-70
2021/12/20 10:12:14;;;;;;;18.77;4.68;;;21.00;96.80;;;;;;5107951;28;20051;-71
2021/12/20 10:15:00;;;;;;;16.40;4.47;;;21.50;96.10;;;;;;5107876;28;20116;-71
2021/12/20 10:17:31;;;;;;;12.05;4.40;;;21.80;95.50;;;;;;5108449;28;20087;-71
2021/12/20 10:20:14;;;;;;;17.75;4.40;;;22.30;95.20;;;;;;5108059;28;20502;-71
2021/12/20 10:22:41;;;;;;;16.83;4.35;;;21.40;94.60;;;;;;5107983;28;20050;-71
2021/12/20 10:25:25;;;;;;;16.33;4.03;;;20.80;95.40;;;;;;5108974;28;20097;-71
2021/12/20 10:27:53;;;;;;;13.45;3.45;;;21.00;95.70;;;;;;5112203;28;20112;-71
2021/12/20 10:30:22;;;;;;;13.07;3.85;;;21.30;95.10;;;;;;5111986;28;20104;-71
2021/12/20 10:32:50;;;;;;;13.85;3.97;;;21.20;94.80;;;;;;5111973;28;20461;-71
2021/12/20 10:35:30;;;;;;;11.30;3.25;;;19.60;95.00;;;;;;5110775;28;20087;-70
2021/12/20 10:37:59;;;;;;;13.82;4.07;;;19.70;96.80;;;;;;5112025;28;20058;-71
2021/12/20 10:40:27;;;;;;;12.88;3.45;;;19.80;95.70;;;;;;5111672;28;20052;-70
2021/12/20 10:42:56;;;;;;;11.60;3.63;;;19.70;95.60;;;;;;5111431;28;20101;-70
2021/12/20 10:45:25;;;;;;;15.70;4.18;;;19.50;95.70;;;;;;5111031;28;20047;-70
2021/12/20 10:47:54;;;;;;;11.95;4.25;;;19.00;96.20;;;;;;5111262;28;20120;-70
2021/12/20 10:50:27;;;;;;;16.23;5.00;;;19.10;96.20;;;;;;5111474;28;20047;-70
2021/12/20 10:52:55;;;;;;;13.23;3.95;;;19.50;95.30;;;;;;5111464;28;20401;-70
2021/12/20 10:55:39;;;;;;;15.40;4.78;;;20.00;94.80;;;;;;5110201;28;20048;-70
2021/12/20 10:58:32;;;;;;;15.45;3.95;;;21.00;94.40;;;;;;5110995;28;20462;-70
2021/12/20 11:01:12;;;;;;;14.23;3.95;;;20.80;94.10;;;;;;5111338;28;20047;-70
2021/12/20 11:03:42;;;;;;;12.00;3.70;;;19.50;94.30;;;;;;5111180;28;20143;-70
2021/12/20 11:06:24;;;;;;;12.27;4.25;;;19.90;95.40;;;;;;5110688;28;20066;-70
2021/12/20 11:09:08;;;;;;;12.68;3.65;;;20.20;94.50;;;;;;5110954;28;20590;-70
2021/12/20 11:11:37;;;;;;;12.07;3.83;;;20.00;94.20;;;;;;5111429;28;20043;-70
2021/12/20 11:14:06;;;;;;;12.35;3.60;;;20.40;95.00;;;;;;5110780;28;20044;-69
2021/12/20 11:16:36;;;;;;;11.40;2.90;;;20.10;94.00;;;;;;5110193;28;20086;-70
2021/12/20 11:19:22;;;;;;;12.02;3.10;;;21.00;93.30;;;;;;5110680;28;20055;-70
2021/12/20 11:21:56;;;;;;;14.43;3.47;;;21.10;93.20;;;;;;5110901;28;20069;-70
2021/12/20 11:24:26;;;;;;;10.50;2.78;;;20.90;93.30;;;;;;5110803;28;20051;-70
2021/12/20 11:26:53;;;;;;;16.73;3.30;;;21.60;93.00;;;;;;5110137;28;20052;-70
2021/12/20 11:29:21;;;;;;;12.95;3.10;;;21.40;92.90;;;;;;5110678;28;20371;-70
2021/12/20 11:31:49;;;;;;;12.77;2.88;;;20.80;92.20;;;;;;5110614;28;20083;-70
2021/12/20 11:34:18;;;;;;;8.68;2.58;;;18.40;92.50;;;;;;5110417;28;20530;-70
2021/12/20 11:36:46;;;;;;;12.90;3.10;;;19.10;93.40;;;;;;5108783;28;20553;-70
2021/12/20 11:39:13;;;;;;;12.75;2.70;;;18.60;92.90;;;;;;5108982;28;20052;-70
2021/12/20 11:41:41;;;;;;;12.15;3.00;;;16.80;93.60;;;;;;5106509;28;20048;-70
2021/12/20 11:44:13;;;;;;;13.63;3.72;;;17.20;95.60;;;;;;5109111;28;20882;-70
2021/12/20 11:46:48;;;;;;;12.65;3.03;;;16.40;94.80;;;;;;5109316;28;20048;-70
2021/12/20 11:49:21;;;;;;;9.07;2.60;;;16.70;95.10;;;;;;5109992;28;20089;-70
2021/12/20 11:52:03;;;;;;;9.18;2.13;;;16.90;95.00;;;;;;5116695;27;20051;-70
2021/12/20 11:54:49;;;;;;;8.90;2.72;;;16.40;96.30;;;;;;5109691;28;20092;-70
2021/12/20 11:57:40;;;;;;;7.85;2.15;;;16.60;94.30;;;;;;5109980;28;20047;-70
2021/12/20 12:00:23;;;;;;;8.07;2.20;;;16.20;94.60;;;;;;5109422;28;20092;-70
2021/12/20 12:02:52;;;;;;;6.78;2.00;;;15.00;95.80;;;;;;5120788;27;20047;-70
2021/12/20 12:05:33;;;;;;;7.95;1.50;;;14.40;95.70;;;;;;5128490;27;20051;-70
2021/12/20 12:08:23;;;;;;;9.82;1.83;;;12.60;95.50;;;;;;5130078;27;20419;-70
2021/12/20 12:10:50;;;;;;;7.65;1.40;;;11.90;96.00;;;;;;5129951;27;20039;-70
2021/12/20 12:13:19;;;;;;;5.55;1.48;;;12.40;97.70;;;;;;5129849;27;20066;-70
2021/12/20 12:15:53;;;;;;;9.95;1.75;;;12.20;96.70;;;;;;5129897;27;20145;-70
2021/12/20 12:18:40;;;;;;;10.48;2.70;;;11.40;98.90;;;;;;5130278;27;20519;-69
2021/12/20 12:21:09;;;;;;;;;;;11.20;98.00;;;;;;5130388;27;20055;-70
2021/12/20 12:23:45;;;;;;;11.50;2.55;;;12.90;97.80;;;;;;5129406;27;19984;-70
2021/12/20 12:26:29;;;;;;;7.38;1.63;;;13.50;97.60;;;;;;5129095;27;20130;-70
2021/12/20 12:28:57;;;;;;;8.27;1.63;;;13.90;97.20;;;;;;5130390;27;20047;-69
2021/12/20 12:31:26;;;;;;;9.95;2.40;;;15.40;96.60;;;;;;5130092;27;20476;-69
2021/12/20 12:34:06;;;;;;;6.28;2.00;;;15.70;94.50;;;;;;5129444;27;20100;-70
2021/12/20 12:36:39;;;;;;;10.38;2.08;;;16.10;94.90;;;;;;5128925;27;20051;-69
2021/12/20 12:39:11;;;;;;;8.18;1.50;;;16.00;93.90;;;;;;5129868;27;20171;-70
2021/12/20 12:41:45;;;;;;;6.55;1.63;;;15.90;94.50;;;;;;5129587;27;20047;-70
2021/12/20 12:44:22;;;;;;;8.65;1.90;;;16.70;93.60;;;;;;5129523;27;20394;-70
2021/12/20 12:47:03;;;;;;;6.28;2.05;;;16.80;94.90;;;;;;5129101;27;20088;-70
2021/12/20 12:49:47;;;;;;;6.88;1.67;;;16.60;93.50;;;;;;5129605;27;20452;-70
2021/12/20 12:52:41;;;;;;;12.25;2.28;;;16.80;93.50;;;;;;5129392;27;20503;-70
2021/12/20 12:55:27;;;;;;;10.07;2.30;;;16.50;94.90;;;;;;5128881;27;20059;-70
2021/12/20 12:57:54;;;;;;;10.65;1.80;;;16.00;94.70;;;;;;5128842;27;20387;-70
2021/12/20 13:00:33;;;;;;;9.77;1.85;;;16.10;95.00;;;;;;5129723;27;20317;-70
2021/12/20 13:03:14;;;;;;;6.40;1.63;;;16.20;93.10;;;;;;5129096;27;20148;-70
2021/12/20 13:05:42;;;;;;;11.32;2.40;;;16.10;93.70;;;;;;5128669;27;20483;-70
2021/12/20 13:08:12;;;;;;;15.93;2.92;;;15.70;92.80;;;;;;5129287;27;20413;-70